createdAt,value
2022-08-07T00:07:27.410Z,8.66
2022-08-07T00:17:35.267Z,8.44
2022-08-07T00:27:52.369Z,8.44
2022-08-07T00:37:55.341Z,8.26
2022-08-07T00:48:09.010Z,8.16
2022-08-07T00:58:15.538Z,8.08
2022-08-07T01:08:22.456Z,8.01
2022-08-07T01:18:34.388Z,7.69
2022-08-07T01:28:45.818Z,7.62
2022-08-07T01:38:53.809Z,7.58
2022-08-07T01:52:01.573Z,7.44
2022-08-07T02:46:52.497Z,7.51
2022-08-07T04:04:24.157Z,7.50
2022-08-07T04:14:37.738Z,7.18
2022-08-07T05:46:51.219Z,11.68
2022-08-07T06:42:03.477Z,14.44
2022-08-07T07:45:10.236Z,23.55
2022-08-07T08:22:00.674Z,28.81
2022-08-07T09:01:15.113Z,25.73
2022-08-07T09:16:23.065Z,28.41
2022-08-07T09:34:53.791Z,25.75
2022-08-07T10:06:12.498Z,28.41
2022-08-07T10:16:30.065Z,28.02
2022-08-07T10:38:42.067Z,28.91
2022-08-07T11:23:17.503Z,27.88
2022-08-07T11:42:52.591Z,30.69
2022-08-07T12:14:12.705Z,27.98
2022-08-07T12:26:03.390Z,25.25
2022-08-07T13:16:58.017Z,24.91
2022-08-07T13:56:17.314Z,29.08
2022-08-07T14:10:28.332Z,28.66
2022-08-07T14:49:56.819Z,28.47
2022-08-07T15:00:05.215Z,28.02
2022-08-07T15:21:44.948Z,27.06
2022-08-07T15:36:01.865Z,27.39
2022-08-07T15:47:21.178Z,27.39
2022-08-07T15:57:48.123Z,23.71
2022-08-07T16:08:31.704Z,22.27
2022-08-07T16:18:01.891Z,21.33
2022-08-07T16:28:14.574Z,20.76
2022-08-07T16:38:44.095Z,20.76
2022-08-07T16:48:53.561Z,20.70
2022-08-07T16:59:10.150Z,20.56
2022-08-07T17:09:10.747Z,20.23
2022-08-07T17:19:16.434Z,20.05
2022-08-07T17:30:15.064Z,19.87
2022-08-07T17:39:58.514Z,19.87
2022-08-07T17:57:59.164Z,19.51
2022-08-07T18:07:58.014Z,18.88
2022-08-07T18:18:44.715Z,18.45
2022-08-07T18:28:33.105Z,18.45
2022-08-07T18:38:56.013Z,17.98
2022-08-07T18:50:31.859Z,17.45
2022-08-07T18:58:52.106Z,16.34
2022-08-07T19:08:58.876Z,16.34
2022-08-07T19:19:05.445Z,15.75
2022-08-07T19:31:05.120Z,15.34
2022-08-07T19:39:40.437Z,14.87
2022-08-07T19:49:56.439Z,14.48
2022-08-07T19:59:54.510Z,14.07
2022-08-07T20:10:35.060Z,13.46
2022-08-07T20:20:12.985Z,13.20
2022-08-07T20:30:22.372Z,12.90
2022-08-07T20:44:28.192Z,12.77
2022-08-07T20:54:33.378Z,12.77
2022-08-07T21:04:40.802Z,12.49
2022-08-07T21:36:05.652Z,12.23
2022-08-07T22:19:10.981Z,12.25
2022-08-07T22:32:06.390Z,11.61
2022-08-07T22:51:36.492Z,11.12
2022-08-07T23:06:08.220Z,10.76
2022-08-07T23:18:42.178Z,10.34
2022-08-07T23:28:53.427Z,10.34
2022-08-07T23:39:00.925Z,9.98
2022-08-07T23:50:34.844Z,9.98
